createdAt,value
2023-04-19T00:01:03.609Z,71.65
2023-04-19T00:03:30.513Z,71.97
2023-04-19T00:06:00.157Z,71.99
2023-04-19T00:08:27.080Z,72.32
2023-04-19T00:10:53.602Z,72.27
2023-04-19T00:13:21.041Z,72.32
2023-04-19T00:15:47.869Z,72.66
2023-04-19T00:18:14.537Z,72.49
2023-04-19T00:20:41.131Z,73.00
2023-04-19T00:23:07.763Z,72.82
2023-04-19T00:25:34.854Z,73.28
2023-04-19T00:28:01.572Z,73.38
2023-04-19T00:30:28.186Z,72.99
2023-04-19T00:32:54.770Z,73.40
2023-04-19T00:35:21.465Z,73.68
2023-04-19T00:37:47.943Z,73.51
2023-04-19T00:40:14.582Z,73.48
2023-04-19T00:42:41.165Z,73.98
2023-04-19T00:45:08.255Z,74.14
2023-04-19T00:47:35.315Z,74.15
2023-04-19T00:50:03.653Z,74.54
2023-04-19T00:52:30.469Z,74.76
2023-04-19T00:54:58.330Z,74.61
2023-04-19T00:57:24.903Z,74.58
2023-04-19T00:59:51.854Z,74.59
2023-04-19T01:02:18.624Z,74.99
2023-04-19T01:04:45.434Z,75.08
2023-04-19T01:07:11.962Z,74.97
2023-04-19T01:09:43.663Z,75.32
2023-04-19T01:12:10.224Z,75.59
2023-04-19T01:14:36.722Z,75.31
2023-04-19T01:17:03.217Z,75.90
2023-04-19T01:19:30.028Z,75.94
2023-04-19T01:21:58.312Z,75.64
2023-04-19T01:24:24.897Z,76.22
2023-04-19T01:26:51.488Z,75.95
2023-04-19T01:29:19.166Z,75.36
2023-04-19T01:31:49.237Z,75.15
2023-04-19T01:34:16.012Z,75.01
2023-04-19T01:36:42.744Z,74.76
2023-04-19T01:39:09.257Z,74.73
2023-04-19T01:41:36.011Z,74.80
2023-04-19T01:44:02.503Z,74.78
2023-04-19T01:46:29.098Z,74.95
2023-04-19T01:48:55.662Z,74.87
2023-04-19T01:51:22.163Z,74.45
2023-04-19T01:53:53.701Z,74.41
2023-04-19T01:56:21.847Z,74.53
2023-04-19T01:58:48.323Z,74.45
2023-04-19T02:01:14.936Z,74.11
2023-04-19T02:03:41.861Z,74.61
2023-04-19T02:06:12.715Z,74.26
2023-04-19T02:08:40.167Z,74.22
2023-04-19T02:11:11.235Z,74.28
2023-04-19T02:13:37.742Z,74.29
2023-04-19T02:16:05.928Z,74.53
2023-04-19T02:18:32.902Z,74.33
2023-04-19T02:20:59.649Z,74.77
2023-04-19T02:23:26.262Z,74.94
2023-04-19T02:25:53.077Z,74.75
2023-04-19T02:28:19.594Z,74.78
2023-04-19T02:30:46.183Z,74.87
2023-04-19T02:33:12.682Z,75.23
2023-04-19T02:35:39.259Z,75.81
2023-04-19T02:38:05.855Z,75.80
2023-04-19T02:40:32.358Z,75.96
2023-04-19T02:42:59.076Z,75.63
2023-04-19T02:45:25.607Z,76.33
2023-04-19T02:47:52.220Z,76.26
2023-04-19T02:50:18.927Z,76.54
2023-04-19T02:52:45.432Z,77.12
2023-04-19T02:55:11.992Z,77.52
2023-04-19T02:57:38.702Z,77.80
2023-04-19T03:00:06.515Z,77.68
2023-04-19T03:02:33.073Z,77.38
2023-04-19T03:04:59.682Z,76.87
2023-04-19T03:07:26.259Z,77.12
2023-04-19T03:09:52.777Z,77.21
2023-04-19T03:12:19.513Z,76.94
2023-04-19T03:14:46.036Z,76.94
2023-04-19T03:17:12.553Z,77.00
2023-04-19T03:19:39.095Z,76.99
2023-04-19T03:22:05.678Z,76.82
2023-04-19T03:24:32.516Z,76.77
2023-04-19T03:26:59.069Z,76.66
2023-04-19T03:29:25.631Z,76.42
2023-04-19T03:31:52.171Z,76.39
2023-04-19T03:34:18.678Z,76.63
2023-04-19T03:36:45.241Z,76.17
2023-04-19T03:39:11.860Z,76.15
2023-04-19T03:41:40.422Z,76.08
2023-04-19T03:44:06.912Z,75.95
2023-04-19T03:46:33.474Z,75.74
2023-04-19T03:49:00.219Z,75.96
2023-04-19T03:51:27.285Z,75.80
2023-04-19T03:53:53.793Z,76.12
2023-04-19T03:56:20.605Z,76.36
2023-04-19T03:58:47.339Z,76.13
2023-04-19T04:01:21.240Z,75.92
2023-04-19T04:03:48.010Z,75.99
2023-04-19T04:06:14.878Z,76.23
2023-04-19T04:08:41.424Z,76.22
2023-04-19T04:11:07.953Z,75.87
2023-04-19T04:13:34.548Z,76.27
2023-04-19T04:16:01.139Z,76.09
2023-04-19T04:18:28.586Z,76.38
2023-04-19T04:20:55.569Z,76.52
2023-04-19T04:23:22.111Z,75.97
2023-04-19T04:25:56.541Z,75.67
2023-04-19T04:28:23.492Z,75.91
2023-04-19T04:30:51.948Z,75.94
2023-04-19T04:33:18.497Z,76.16
2023-04-19T04:35:45.224Z,75.95
2023-04-19T04:38:23.579Z,75.57
2023-04-19T04:40:55.395Z,75.47
2023-04-19T04:43:23.371Z,75.31
2023-04-19T04:45:50.143Z,75.37
2023-04-19T04:48:16.679Z,75.30
2023-04-19T04:50:44.179Z,75.61
2023-04-19T04:53:13.140Z,75.33
2023-04-19T04:55:39.923Z,75.83
2023-04-19T04:58:06.690Z,75.72
2023-04-19T05:00:33.555Z,75.67
2023-04-19T05:03:00.407Z,75.31
2023-04-19T05:05:27.048Z,75.08
2023-04-19T05:07:53.541Z,75.09
2023-04-19T05:10:20.156Z,74.60
2023-04-19T05:12:46.771Z,74.95
2023-04-19T05:15:13.439Z,74.85
2023-04-19T05:17:40.124Z,74.74
2023-04-19T05:20:07.287Z,74.50
2023-04-19T05:22:34.055Z,74.04
2023-04-19T05:25:00.629Z,73.94
2023-04-19T05:27:27.096Z,74.00
2023-04-19T05:29:53.774Z,73.68
2023-04-19T05:32:20.763Z,73.56
2023-04-19T05:34:47.363Z,73.39
2023-04-19T05:37:13.907Z,73.52
2023-04-19T05:39:42.353Z,73.32
2023-04-19T05:42:10.763Z,72.94
2023-04-19T05:44:37.271Z,72.93
2023-04-19T05:47:03.851Z,72.86
2023-04-19T05:49:30.400Z,72.90
2023-04-19T05:51:57.114Z,72.11
2023-04-19T05:54:23.701Z,72.06
2023-04-19T05:56:50.656Z,72.00
2023-04-19T05:59:17.245Z,71.80
2023-04-19T06:01:44.181Z,71.42
2023-04-19T06:04:11.469Z,71.16
2023-04-19T06:06:38.225Z,70.87
2023-04-19T06:09:04.892Z,70.65
2023-04-19T06:11:38.928Z,70.19
2023-04-19T06:14:10.650Z,70.00
2023-04-19T06:16:37.258Z,69.27
2023-04-19T06:19:03.831Z,69.04
2023-04-19T06:21:31.669Z,69.00
2023-04-19T06:23:58.560Z,69.21
2023-04-19T06:26:25.151Z,68.73
2023-04-19T06:28:51.747Z,68.27
2023-04-19T06:31:18.355Z,68.33
2023-04-19T06:33:44.923Z,67.14
2023-04-19T06:36:11.526Z,67.71
2023-04-19T06:38:38.556Z,66.14
2023-04-19T06:41:05.389Z,66.03
2023-04-19T06:43:31.935Z,65.40
2023-04-19T06:46:02.276Z,65.51
2023-04-19T06:48:28.978Z,64.81
2023-04-19T06:50:55.654Z,64.48
2023-04-19T06:53:22.430Z,64.13
2023-04-19T06:55:48.897Z,63.71
2023-04-19T06:58:15.538Z,63.41
2023-04-19T07:00:42.319Z,63.16
2023-04-19T07:03:09.185Z,62.93
2023-04-19T07:05:36.675Z,62.29
2023-04-19T07:08:03.227Z,61.57
2023-04-19T07:10:29.727Z,61.60
2023-04-19T07:12:56.211Z,60.94
2023-04-19T07:15:22.872Z,60.41
2023-04-19T07:17:49.545Z,60.56
2023-04-19T07:20:16.127Z,59.38
2023-04-19T07:22:42.914Z,58.76
2023-04-19T07:25:09.851Z,57.92
2023-04-19T07:27:36.359Z,57.97
2023-04-19T07:30:03.228Z,57.53
2023-04-19T07:32:31.329Z,56.88
2023-04-19T07:34:57.883Z,57.59
2023-04-19T07:37:24.420Z,57.18
2023-04-19T07:39:50.986Z,56.96
2023-04-19T07:42:17.819Z,55.62
2023-04-19T07:44:44.316Z,55.40
2023-04-19T07:47:10.902Z,55.69
2023-04-19T07:49:37.748Z,55.88
2023-04-19T07:52:07.900Z,55.99
2023-04-19T07:54:34.543Z,55.30
2023-04-19T07:57:01.139Z,54.10
2023-04-19T07:59:27.765Z,53.80
2023-04-19T08:01:54.358Z,52.61
2023-04-19T08:04:23.252Z,52.35
2023-04-19T08:06:50.100Z,52.33
2023-04-19T08:09:16.799Z,51.58
2023-04-19T08:11:43.516Z,51.59
2023-04-19T08:14:25.870Z,52.48
2023-04-19T08:17:22.428Z,51.65
2023-04-19T08:19:43.570Z,50.85
2023-04-19T08:22:10.624Z,50.90
2023-04-19T08:24:37.225Z,49.98
2023-04-19T08:27:03.870Z,48.81
2023-04-19T08:29:30.457Z,46.73
2023-04-19T08:31:57.012Z,44.18
2023-04-19T08:34:23.584Z,42.87
2023-04-19T08:37:00.315Z,42.81
2023-04-19T08:39:33.625Z,42.49
2023-04-19T08:42:13.503Z,43.54
2023-04-19T08:45:17.028Z,43.12
2023-04-19T08:50:24.180Z,44.26
2023-04-19T08:53:05.216Z,44.23
2023-04-19T08:55:58.390Z,44.17
2023-04-19T08:58:41.298Z,43.52
2023-04-19T09:01:31.131Z,42.15
2023-04-19T09:04:09.603Z,39.93
2023-04-19T09:06:43.651Z,39.07
2023-04-19T09:09:33.288Z,38.02
2023-04-19T09:12:02.071Z,38.04
2023-04-19T09:14:29.353Z,36.52
2023-04-19T09:17:17.186Z,35.91
2023-04-19T09:19:50.349Z,36.37
2023-04-19T09:22:17.392Z,37.11
2023-04-19T09:27:16.052Z,36.64
2023-04-19T09:29:44.130Z,35.71
2023-04-19T09:32:10.652Z,34.28
2023-04-19T09:35:00.014Z,34.46
2023-04-19T09:39:57.049Z,33.47
2023-04-19T09:42:42.139Z,34.10
2023-04-19T09:47:39.150Z,34.13
2023-04-19T09:50:19.292Z,33.21
2023-04-19T09:52:49.793Z,33.03
2023-04-19T09:55:26.813Z,33.53
2023-04-19T09:57:55.056Z,34.03
2023-04-19T10:00:22.760Z,34.02
2023-04-19T10:02:55.952Z,31.77
2023-04-19T10:05:24.427Z,31.02
2023-04-19T10:07:54.880Z,31.20
2023-04-19T10:10:33.290Z,30.64
2023-04-19T10:13:19.907Z,30.10
2023-04-19T10:15:54.158Z,29.72
2023-04-19T10:18:26.198Z,27.89
2023-04-19T10:21:00.122Z,28.11
2023-04-19T10:23:26.839Z,26.52
2023-04-19T10:25:57.894Z,26.10
2023-04-19T10:28:24.707Z,26.43
2023-04-19T10:30:54.590Z,25.70
2023-04-19T10:33:29.607Z,24.48
2023-04-19T10:35:57.707Z,26.61
2023-04-19T10:38:47.041Z,26.50
2023-04-19T10:41:17.008Z,26.55
2023-04-19T10:44:10.319Z,25.75
2023-04-19T10:46:40.171Z,25.36
2023-04-19T10:49:07.928Z,26.93
2023-04-19T10:51:36.530Z,27.42
2023-04-19T10:54:07.722Z,26.22
2023-04-19T10:56:34.366Z,25.36
2023-04-19T10:59:13.339Z,25.53
2023-04-19T11:01:44.480Z,25.09
2023-04-19T11:04:12.463Z,23.84
2023-04-19T11:07:01.467Z,23.87
2023-04-19T11:09:35.969Z,23.59
2023-04-19T11:12:05.181Z,23.35
2023-04-19T11:14:34.547Z,23.17
2023-04-19T11:17:04.026Z,23.35
2023-04-19T11:19:30.865Z,23.12
2023-04-19T11:22:00.527Z,22.46
2023-04-19T11:24:27.120Z,22.48
2023-04-19T11:26:56.168Z,22.02
2023-04-19T11:29:22.797Z,22.86
2023-04-19T11:31:49.889Z,22.30
2023-04-19T11:34:16.974Z,21.63
2023-04-19T11:36:51.491Z,23.52
2023-04-19T11:39:18.925Z,24.18
2023-04-19T11:41:47.216Z,24.40
2023-04-19T11:44:19.964Z,24.98
2023-04-19T11:47:03.372Z,24.83
2023-04-19T11:49:32.238Z,24.42
2023-04-19T11:52:00.260Z,22.99
2023-04-19T11:54:27.962Z,22.64
2023-04-19T11:57:12.411Z,23.53
2023-04-19T11:59:39.401Z,23.69
2023-04-19T12:02:07.795Z,24.13
2023-04-19T12:04:35.252Z,23.80
2023-04-19T12:07:03.294Z,23.88
2023-04-19T12:09:30.060Z,23.42
2023-04-19T12:11:58.371Z,23.26
2023-04-19T12:14:26.685Z,23.35
2023-04-19T12:17:13.688Z,23.17
2023-04-19T12:19:46.227Z,23.17
2023-04-19T12:22:20.276Z,22.91
2023-04-19T12:24:46.865Z,21.93
2023-04-19T12:27:17.854Z,22.67
2023-04-19T12:29:44.450Z,22.09
2023-04-19T12:32:11.417Z,21.72
2023-04-19T12:34:38.053Z,21.31
2023-04-19T12:37:04.574Z,21.84
2023-04-19T12:39:31.142Z,22.06
2023-04-19T12:41:57.740Z,21.63
2023-04-19T12:44:24.310Z,21.79
2023-04-19T12:46:50.905Z,21.31
2023-04-19T12:49:20.730Z,21.06
2023-04-19T12:51:47.800Z,20.88
2023-04-19T12:54:15.522Z,20.33
2023-04-19T12:56:42.132Z,20.75
2023-04-19T12:59:08.782Z,20.28
2023-04-19T13:01:35.411Z,21.21
2023-04-19T13:04:02.192Z,20.78
2023-04-19T13:06:28.893Z,20.37
2023-04-19T13:08:59.905Z,20.75
2023-04-19T13:11:27.880Z,20.76
2023-04-19T13:13:54.477Z,20.80
2023-04-19T13:16:21.420Z,20.86
2023-04-19T13:18:48.302Z,21.22
2023-04-19T13:21:14.964Z,20.90
2023-04-19T13:23:43.116Z,20.99
2023-04-19T13:26:09.613Z,19.99
2023-04-19T13:28:36.370Z,21.07
2023-04-19T13:31:04.742Z,20.98
2023-04-19T13:33:31.421Z,20.98
2023-04-19T13:35:58.005Z,21.00
2023-04-19T13:38:25.115Z,20.55
2023-04-19T13:40:51.669Z,20.38
2023-04-19T13:43:18.222Z,20.70
2023-04-19T13:45:44.773Z,20.57
2023-04-19T13:48:11.423Z,20.03
2023-04-19T13:50:38.119Z,19.76
2023-04-19T13:53:04.723Z,20.03
2023-04-19T13:55:31.344Z,19.89
2023-04-19T13:57:57.928Z,19.80
2023-04-19T14:00:24.612Z,19.50
2023-04-19T14:02:52.416Z,19.89
2023-04-19T14:05:19.406Z,21.03
2023-04-19T14:07:46.018Z,21.28
2023-04-19T14:10:12.554Z,21.29
2023-04-19T14:12:39.093Z,21.56
2023-04-19T14:15:06.016Z,21.44
2023-04-19T14:17:32.645Z,21.25
2023-04-19T14:19:59.213Z,20.62
2023-04-19T14:22:25.919Z,20.50
2023-04-19T14:24:52.411Z,20.67
2023-04-19T14:27:19.350Z,21.24
2023-04-19T14:29:46.054Z,20.77
2023-04-19T14:32:24.928Z,20.82
2023-04-19T14:34:53.106Z,21.10
2023-04-19T14:37:21.149Z,20.83
2023-04-19T14:39:47.660Z,22.09
2023-04-19T14:42:14.332Z,22.50
2023-04-19T14:44:41.509Z,21.50
2023-04-19T14:47:08.134Z,21.64
2023-04-19T14:49:34.705Z,21.57
2023-04-19T14:52:01.278Z,20.55
2023-04-19T14:54:28.081Z,21.33
2023-04-19T14:56:54.620Z,20.03
2023-04-19T14:59:21.493Z,21.01
2023-04-19T15:01:48.212Z,20.97
2023-04-19T15:04:14.994Z,20.44
2023-04-19T15:06:41.594Z,19.35
2023-04-19T15:09:08.587Z,19.15
2023-04-19T15:11:35.287Z,19.50
2023-04-19T15:14:02.190Z,19.54
2023-04-19T15:16:29.000Z,19.35
2023-04-19T15:18:55.585Z,20.65
2023-04-19T15:21:24.529Z,20.50
2023-04-19T15:23:51.504Z,20.48
2023-04-19T15:26:18.085Z,20.71
2023-04-19T15:28:44.681Z,20.92
2023-04-19T15:31:11.494Z,21.48
2023-04-19T15:33:38.344Z,21.16
2023-04-19T15:36:05.577Z,21.20
2023-04-19T15:38:32.802Z,20.87
2023-04-19T15:41:00.793Z,20.81
2023-04-19T15:43:27.622Z,20.98
2023-04-19T15:45:54.172Z,21.28
2023-04-19T15:48:20.891Z,21.37
2023-04-19T15:50:47.725Z,20.77
2023-04-19T15:53:14.663Z,21.33
2023-04-19T15:55:46.530Z,21.60
2023-04-19T15:58:13.072Z,21.42
2023-04-19T16:00:39.600Z,21.98
2023-04-19T16:03:06.248Z,22.42
2023-04-19T16:05:32.933Z,22.04
2023-04-19T16:08:07.734Z,22.43
2023-04-19T16:10:34.917Z,22.55
2023-04-19T16:13:02.372Z,23.12
2023-04-19T16:15:29.165Z,23.02
2023-04-19T16:17:55.842Z,23.82
2023-04-19T16:20:22.477Z,23.40
2023-04-19T16:22:49.304Z,23.52
2023-04-19T16:25:17.808Z,23.83
2023-04-19T16:27:45.603Z,23.45
2023-04-19T16:30:12.494Z,23.40
2023-04-19T16:32:41.232Z,23.18
2023-04-19T16:35:08.552Z,23.41
2023-04-19T16:37:35.856Z,24.57
2023-04-19T16:40:10.940Z,24.85
2023-04-19T16:42:38.980Z,23.96
2023-04-19T16:45:06.908Z,24.36
2023-04-19T16:47:33.984Z,25.26
2023-04-19T16:52:28.896Z,25.70
2023-04-19T16:54:55.776Z,25.95
2023-04-19T16:57:23.334Z,25.94
2023-04-19T16:59:50.341Z,26.54
2023-04-19T17:02:17.390Z,26.95
2023-04-19T17:04:44.492Z,28.68
2023-04-19T17:07:11.650Z,30.05
2023-04-19T17:09:38.420Z,32.99
2023-04-19T17:12:05.424Z,33.18
2023-04-19T17:14:34.015Z,32.99
2023-04-19T17:17:00.838Z,31.94
2023-04-19T17:19:27.606Z,33.83
2023-04-19T17:21:54.136Z,33.71
2023-04-19T17:24:20.720Z,35.14
2023-04-19T17:26:47.242Z,34.71
2023-04-19T17:29:13.748Z,35.07
2023-04-19T17:31:40.410Z,35.36
2023-04-19T17:34:07.000Z,35.85
2023-04-19T17:36:33.583Z,35.74
2023-04-19T17:39:00.157Z,36.66
2023-04-19T17:41:27.173Z,37.23
2023-04-19T17:43:53.690Z,38.13
2023-04-19T17:46:20.915Z,37.87
2023-04-19T17:48:47.683Z,39.16
2023-04-19T17:51:14.217Z,41.04
2023-04-19T17:53:41.012Z,41.96
2023-04-19T17:56:07.497Z,42.60
2023-04-19T17:58:36.193Z,43.85
2023-04-19T18:01:03.571Z,44.03
2023-04-19T18:03:31.095Z,44.37
2023-04-19T18:05:58.085Z,44.71
2023-04-19T18:08:24.634Z,45.03
2023-04-19T18:10:51.244Z,45.44
2023-04-19T18:13:17.809Z,45.97
2023-04-19T18:15:44.423Z,47.06
2023-04-19T18:18:11.077Z,47.10
2023-04-19T18:20:37.646Z,47.42
2023-04-19T18:23:04.211Z,47.13
2023-04-19T18:25:30.784Z,47.93
2023-04-19T18:27:57.372Z,48.25
2023-04-19T18:30:23.995Z,48.35
2023-04-19T18:32:50.502Z,49.16
2023-04-19T18:35:17.017Z,49.22
2023-04-19T18:37:43.509Z,49.66
2023-04-19T18:40:11.258Z,49.21
2023-04-19T18:42:37.845Z,49.96
2023-04-19T18:45:04.686Z,50.26
2023-04-19T18:47:31.574Z,50.83
2023-04-19T18:50:05.027Z,51.71
2023-04-19T18:52:34.080Z,51.78
2023-04-19T18:55:00.746Z,52.09
2023-04-19T18:57:27.980Z,52.10
2023-04-19T18:59:57.603Z,52.57
2023-04-19T19:02:24.321Z,52.64
2023-04-19T19:04:57.624Z,52.64
2023-04-19T19:07:36.308Z,52.55
2023-04-19T19:10:17.361Z,53.21
2023-04-19T19:12:47.591Z,53.22
2023-04-19T19:15:14.522Z,53.29
2023-04-19T19:17:41.200Z,53.41
2023-04-19T19:20:08.907Z,53.74
2023-04-19T19:22:35.516Z,53.28
2023-04-19T19:25:02.046Z,53.64
2023-04-19T19:27:28.820Z,53.53
2023-04-19T19:29:55.705Z,53.41
2023-04-19T19:32:22.323Z,53.48
2023-04-19T19:37:19.795Z,52.81
2023-04-19T19:39:46.661Z,52.41
2023-04-19T19:42:15.977Z,52.61
2023-04-19T19:44:42.596Z,52.52
2023-04-19T19:47:10.500Z,52.56
2023-04-19T19:49:51.482Z,52.45
2023-04-19T19:52:21.859Z,52.56
2023-04-19T19:54:48.441Z,52.52
2023-04-19T19:59:51.692Z,52.78
2023-04-19T20:02:22.230Z,52.95
2023-04-19T20:04:49.359Z,53.24
2023-04-19T20:09:45.821Z,53.39
2023-04-19T20:12:13.594Z,53.80
2023-04-19T20:14:40.909Z,53.76
2023-04-19T20:17:07.539Z,53.95
2023-04-19T20:19:34.133Z,54.25
2023-04-19T20:22:00.845Z,54.33
2023-04-19T20:24:27.570Z,54.42
2023-04-19T20:26:54.135Z,54.94
2023-04-19T20:29:20.978Z,54.91
2023-04-19T20:31:47.679Z,55.09
2023-04-19T20:34:14.322Z,55.21
2023-04-19T20:36:41.713Z,55.45
2023-04-19T20:39:13.255Z,55.64
2023-04-19T20:41:41.081Z,55.82
2023-04-19T20:44:07.624Z,55.95
2023-04-19T20:46:37.204Z,56.05
2023-04-19T20:49:03.726Z,55.77
2023-04-19T20:51:31.708Z,56.16
2023-04-19T20:53:58.215Z,56.38
2023-04-19T20:56:24.777Z,56.58
2023-04-19T20:58:51.304Z,56.71
2023-04-19T21:01:18.752Z,56.62
2023-04-19T21:03:46.098Z,56.86
2023-04-19T21:06:12.940Z,56.73
2023-04-19T21:08:39.459Z,56.72
2023-04-19T21:11:05.966Z,56.48
2023-04-19T21:13:33.021Z,55.97
2023-04-19T21:15:59.768Z,56.57
2023-04-19T21:18:28.610Z,55.75
2023-04-19T21:20:56.158Z,55.84
2023-04-19T21:23:22.923Z,55.15
2023-04-19T21:25:49.754Z,54.60
2023-04-19T21:28:16.273Z,54.58
2023-04-19T21:30:43.294Z,54.20
2023-04-19T21:33:10.351Z,53.47
2023-04-19T21:35:36.931Z,52.75
2023-04-19T21:38:03.553Z,51.96
2023-04-19T21:40:30.178Z,51.38
2023-04-19T21:42:56.857Z,50.74
2023-04-19T21:45:23.555Z,49.57
2023-04-19T21:47:50.136Z,49.65
2023-04-19T21:50:16.737Z,48.95
2023-04-19T21:52:43.244Z,48.50
2023-04-19T21:55:09.878Z,47.55
2023-04-19T21:57:38.466Z,48.00
2023-04-19T22:00:06.792Z,47.59
2023-04-19T22:02:33.308Z,47.35
2023-04-19T22:05:00.259Z,46.55
2023-04-19T22:07:30.219Z,46.39
2023-04-19T22:09:57.855Z,46.80
2023-04-19T22:12:24.677Z,47.39
2023-04-19T22:14:51.632Z,47.85
2023-04-19T22:17:21.371Z,48.30
2023-04-19T22:19:48.518Z,48.16
2023-04-19T22:22:15.537Z,48.69
2023-04-19T22:24:56.314Z,48.59
2023-04-19T22:27:24.538Z,48.50
2023-04-19T22:29:51.017Z,47.81
2023-04-19T22:32:17.578Z,48.00
2023-04-19T22:34:44.238Z,47.98
2023-04-19T22:37:10.927Z,47.42
2023-04-19T22:39:37.463Z,47.23
2023-04-19T22:42:04.077Z,47.29
2023-04-19T22:44:30.638Z,47.24
2023-04-19T22:46:58.537Z,46.89
2023-04-19T22:49:25.228Z,46.81
2023-04-19T22:51:51.850Z,47.61
2023-04-19T22:54:18.528Z,47.17
2023-04-19T22:56:44.998Z,46.30
2023-04-19T22:59:11.718Z,46.27
2023-04-19T23:01:38.241Z,46.42
2023-04-19T23:04:04.994Z,46.47
2023-04-19T23:06:32.494Z,46.07
2023-04-19T23:09:00.689Z,45.25
2023-04-19T23:11:29.811Z,45.01
2023-04-19T23:13:56.419Z,44.87
2023-04-19T23:16:24.400Z,44.63
2023-04-19T23:18:51.323Z,44.05
2023-04-19T23:21:17.968Z,43.59
2023-04-19T23:23:44.460Z,43.81
2023-04-19T23:26:10.965Z,43.67
2023-04-19T23:28:37.503Z,43.30
2023-04-19T23:31:04.044Z,43.39
2023-04-19T23:33:30.886Z,42.98
2023-04-19T23:35:57.558Z,43.26
2023-04-19T23:38:24.183Z,43.34
2023-04-19T23:40:50.795Z,43.45
2023-04-19T23:43:17.394Z,43.16
2023-04-19T23:45:43.933Z,43.31
2023-04-19T23:48:10.544Z,43.35
2023-04-19T23:50:37.070Z,43.68
2023-04-19T23:53:04.444Z,43.99
2023-04-19T23:55:31.157Z,44.15
2023-04-19T23:57:58.591Z,44.58
